createdAt,value
2023-03-04T00:01:10.359Z,99733.77
2023-03-04T00:06:13.507Z,99729.30
2023-03-04T00:11:16.742Z,99720.67
2023-03-04T00:16:19.452Z,99708.91
2023-03-04T00:21:22.632Z,99705.00
2023-03-04T00:26:25.583Z,99699.30
2023-03-04T00:31:28.377Z,99686.98
2023-03-04T00:36:31.161Z,99676.62
2023-03-04T00:41:33.905Z,99668.71
2023-03-04T00:46:36.712Z,99656.16
2023-03-04T00:51:39.585Z,99651.80
2023-03-04T00:56:42.731Z,99650.92
2023-03-04T01:01:45.596Z,99647.75
2023-03-04T01:06:48.614Z,99646.02
2023-03-04T01:11:51.628Z,99642.36
2023-03-04T01:16:54.432Z,99630.16
2023-03-04T01:21:57.222Z,99612.48
2023-03-04T01:27:00.305Z,99591.66
2023-03-04T01:32:03.500Z,99577.30
2023-03-04T01:37:06.433Z,99579.30
2023-03-04T01:42:18.793Z,99572.45
2023-03-04T01:47:24.417Z,99564.58
2023-03-04T01:52:28.023Z,99551.40
2023-03-04T01:57:36.627Z,99540.03
2023-03-04T02:02:39.793Z,99539.42
2023-03-04T02:07:42.816Z,99526.92
2023-03-04T02:12:46.258Z,99515.92
2023-03-04T02:17:49.470Z,99507.61
2023-03-04T02:22:56.798Z,99497.82
2023-03-04T02:27:59.606Z,99499.63
2023-03-04T02:33:02.407Z,99500.98
2023-03-04T02:38:05.146Z,99497.59
2023-03-04T02:43:11.747Z,99490.30
2023-03-04T02:48:19.082Z,99481.45
2023-03-04T02:53:22.432Z,99472.32
2023-03-04T02:58:25.190Z,99473.83
2023-03-04T03:03:27.994Z,99469.83
2023-03-04T03:08:30.755Z,99464.71
2023-03-04T03:13:33.577Z,99464.20
2023-03-04T03:18:36.328Z,99456.03
2023-03-04T03:23:39.077Z,99456.46
2023-03-04T03:28:41.798Z,99456.55
2023-03-04T03:33:44.566Z,99453.33
2023-03-04T03:38:47.510Z,99452.59
2023-03-04T03:43:50.249Z,99450.08
2023-03-04T03:48:52.998Z,99446.10
2023-03-04T03:53:55.699Z,99441.35
2023-03-04T03:58:58.505Z,99440.73
2023-03-04T04:04:01.287Z,99437.95
2023-03-04T04:09:04.219Z,99442.77
2023-03-04T04:14:07.041Z,99437.07
2023-03-04T04:19:17.070Z,99436.15
2023-03-04T04:24:19.774Z,99439.87
2023-03-04T04:29:23.301Z,99440.45
2023-03-04T04:34:26.903Z,99440.61
2023-03-04T04:39:29.628Z,99429.92
2023-03-04T04:44:32.362Z,99427.77
2023-03-04T04:49:35.501Z,99427.73
2023-03-04T04:54:38.227Z,99427.42
2023-03-04T04:59:40.951Z,99423.86
2023-03-04T05:04:43.690Z,99425.20
2023-03-04T05:09:46.884Z,99426.45
2023-03-04T05:14:49.818Z,99422.50
2023-03-04T05:19:52.580Z,99421.11
2023-03-04T05:24:55.425Z,99419.57
2023-03-04T05:30:01.103Z,99419.83
2023-03-04T05:35:04.128Z,99417.11
2023-03-04T05:40:09.426Z,99421.35
2023-03-04T05:45:13.265Z,99419.58
2023-03-04T05:50:16.470Z,99423.03
2023-03-04T05:55:20.088Z,99424.77
2023-03-04T06:00:23.597Z,99425.55
2023-03-04T06:05:26.332Z,99429.02
2023-03-04T06:10:29.138Z,99427.62
2023-03-04T06:15:32.328Z,99431.02
2023-03-04T06:20:35.233Z,99428.39
2023-03-04T06:25:37.985Z,99422.84
2023-03-04T06:30:41.144Z,99415.84
2023-03-04T06:35:43.916Z,99411.83
2023-03-04T06:40:46.618Z,99412.20
2023-03-04T06:45:49.506Z,99417.23
2023-03-04T06:50:52.352Z,99413.38
2023-03-04T06:55:55.100Z,99421.66
2023-03-04T07:00:57.936Z,99420.17
2023-03-04T07:06:00.676Z,99421.10
2023-03-04T07:11:03.462Z,99426.21
2023-03-04T07:16:08.885Z,99426.90
2023-03-04T07:21:13.455Z,99428.41
2023-03-04T07:26:17.217Z,99432.06
2023-03-04T07:31:29.941Z,99421.91
2023-03-04T07:36:36.384Z,99421.79
2023-03-04T07:41:40.172Z,99423.11
2023-03-04T07:46:45.160Z,99425.31
2023-03-04T07:51:49.944Z,99434.69
2023-03-04T07:56:53.934Z,99436.98
2023-03-04T08:01:57.312Z,99436.69
2023-03-04T08:07:01.038Z,99434.67
2023-03-04T08:12:04.129Z,99428.83
2023-03-04T08:17:07.577Z,99439.95
2023-03-04T08:22:14.049Z,99440.80
2023-03-04T08:27:17.165Z,99442.23
2023-03-04T08:32:20.043Z,99443.40
2023-03-04T08:37:24.040Z,99443.30
2023-03-04T08:42:27.843Z,99445.12
2023-03-04T08:47:32.017Z,99454.50
2023-03-04T08:52:34.754Z,99448.27
2023-03-04T08:57:37.630Z,99443.33
2023-03-04T09:02:40.365Z,99442.27
2023-03-04T09:07:43.141Z,99444.02
2023-03-04T09:12:46.722Z,99452.09
2023-03-04T09:17:49.544Z,99444.23
2023-03-04T09:22:52.321Z,99436.84
2023-03-04T09:27:55.184Z,99436.64
2023-03-04T09:32:58.448Z,99434.63
2023-03-04T09:38:01.632Z,99439.59
2023-03-04T09:43:07.039Z,99438.92
2023-03-04T09:48:16.118Z,99439.21
2023-03-04T09:53:54.330Z,99437.09
2023-03-04T09:59:24.646Z,99440.45
2023-03-04T10:04:37.594Z,99446.13
2023-03-04T10:10:38.306Z,99444.67
2023-03-04T10:15:48.467Z,99450.59
2023-03-04T10:20:59.407Z,99454.96
2023-03-04T10:26:14.077Z,99452.45
2023-03-04T10:31:42.303Z,99453.79
2023-03-04T10:37:00.056Z,99462.73
2023-03-04T10:42:38.013Z,99453.40
2023-03-04T10:47:51.929Z,99457.30
2023-03-04T10:52:56.696Z,99457.67
2023-03-04T10:58:05.744Z,99458.39
2023-03-04T11:03:29.052Z,99455.20
2023-03-04T11:08:32.686Z,99456.34
2023-03-04T11:13:35.476Z,99453.13
2023-03-04T11:18:46.185Z,99459.84
2023-03-04T11:24:27.209Z,99465.41
2023-03-04T11:29:41.113Z,99460.34
2023-03-04T11:35:09.367Z,99466.71
2023-03-04T11:40:43.245Z,99464.11
2023-03-04T11:46:17.580Z,99456.89
2023-03-04T11:51:58.077Z,99454.58
2023-03-04T11:57:13.255Z,99448.46
2023-03-04T12:02:48.494Z,99442.30
2023-03-04T12:08:16.277Z,99444.89
2023-03-04T12:13:31.262Z,99463.61
2023-03-04T12:18:49.278Z,99469.13
2023-03-04T12:24:13.940Z,99485.17
2023-03-04T12:29:44.329Z,99486.92
2023-03-04T12:35:25.925Z,99484.15
2023-03-04T12:40:56.849Z,99491.72
2023-03-04T12:46:51.637Z,99497.36
2023-03-04T12:52:06.298Z,99493.23
2023-03-04T12:57:12.639Z,99511.59
2023-03-04T13:02:37.391Z,99523.05
2023-03-04T13:07:52.660Z,99530.37
2023-03-04T13:12:57.428Z,99522.71
2023-03-04T13:18:02.774Z,99518.79
2023-03-04T13:23:09.102Z,99538.27
2023-03-04T13:28:33.261Z,99545.00
2023-03-04T13:33:36.021Z,99562.48
2023-03-04T13:38:41.369Z,99579.65
2023-03-04T13:43:52.115Z,99588.48
2023-03-04T13:48:54.795Z,99596.30
2023-03-04T13:54:01.099Z,99598.94
2023-03-04T13:59:09.932Z,99602.64
2023-03-04T14:04:26.842Z,99616.61
2023-03-04T14:09:35.092Z,99617.80
2023-03-04T14:14:44.761Z,99627.30
2023-03-04T14:19:53.821Z,99633.65
2023-03-04T14:24:57.770Z,99633.75
2023-03-04T14:30:04.002Z,99648.71
2023-03-04T14:35:19.591Z,99668.73
2023-03-04T14:40:29.440Z,99658.11
2023-03-04T14:45:32.369Z,99662.13
2023-03-04T14:50:37.849Z,99673.20
2023-03-04T14:55:54.281Z,99664.61
2023-03-04T15:01:20.253Z,99667.72
2023-03-04T15:06:25.545Z,99661.29
2023-03-04T15:11:45.207Z,99659.23
2023-03-04T15:16:57.970Z,99678.67
2023-03-04T15:22:06.489Z,99674.25
2023-03-04T15:27:12.702Z,99687.29
2023-03-04T15:32:16.193Z,99698.29
2023-03-04T15:37:26.166Z,99707.56
2023-03-04T15:42:29.393Z,99710.62
2023-03-04T15:47:34.684Z,99715.36
2023-03-04T15:52:41.649Z,99718.52
2023-03-04T15:57:49.201Z,99721.35
2023-03-04T16:02:52.396Z,99722.73
2023-03-04T16:07:55.539Z,99716.25
2023-03-04T16:12:58.797Z,99725.14
2023-03-04T16:18:02.880Z,99720.08
2023-03-04T16:23:12.181Z,99721.08
2023-03-04T16:28:18.225Z,99723.20
2023-03-04T16:33:21.006Z,99725.52
2023-03-04T16:38:33.234Z,99731.34
2023-03-04T16:43:37.071Z,99735.23
2023-03-04T16:48:40.918Z,99740.59
2023-03-04T16:53:48.791Z,99741.16
2023-03-04T16:58:55.907Z,99748.75
2023-03-04T17:03:58.804Z,99755.33
2023-03-04T17:09:01.549Z,99758.21
2023-03-04T17:14:04.301Z,99762.46
2023-03-04T17:19:07.020Z,99761.88
2023-03-04T17:24:11.601Z,99757.89
2023-03-04T17:29:15.034Z,99758.48
2023-03-04T17:34:19.004Z,99765.73
2023-03-04T17:39:21.926Z,99765.62
2023-03-04T17:44:26.001Z,99774.55
2023-03-04T17:49:30.559Z,99777.72
2023-03-04T17:54:33.579Z,99781.38
2023-03-04T17:59:36.313Z,99780.23
2023-03-04T18:04:41.109Z,99781.28
2023-03-04T18:09:45.443Z,99779.58
2023-03-04T18:14:48.149Z,99783.33
2023-03-04T18:19:51.160Z,99779.39
2023-03-04T18:24:54.300Z,99780.41
2023-03-04T18:29:58.923Z,99783.77
2023-03-04T18:35:02.755Z,99783.04
2023-03-04T18:40:08.808Z,99782.83
2023-03-04T18:45:14.694Z,99779.70
2023-03-04T18:50:18.166Z,99778.13
2023-03-04T18:55:22.865Z,99780.66
2023-03-04T19:00:26.206Z,99781.48
2023-03-04T19:05:32.535Z,99781.64
2023-03-04T19:10:35.307Z,99783.16
2023-03-04T19:15:38.135Z,99781.61
2023-03-04T19:20:42.916Z,99785.52
2023-03-04T19:25:45.664Z,99784.65
2023-03-04T19:30:48.881Z,99785.95
2023-03-04T19:35:51.723Z,99795.65
2023-03-04T19:40:57.021Z,99789.64
2023-03-04T19:45:59.889Z,99783.10
2023-03-04T19:51:05.057Z,99776.44
2023-03-04T19:56:08.802Z,99785.98
2023-03-04T20:01:29.272Z,99788.88
2023-03-04T20:06:32.081Z,99793.67
2023-03-04T20:11:41.480Z,99793.70
2023-03-04T20:16:54.000Z,99792.34
2023-03-04T20:21:57.966Z,99796.45
2023-03-04T20:27:01.350Z,99794.04
2023-03-04T20:32:04.659Z,99786.83
2023-03-04T20:37:09.117Z,99785.44
2023-03-04T20:42:12.360Z,99785.56
2023-03-04T20:47:15.145Z,99781.77
2023-03-04T20:52:19.410Z,99782.10
2023-03-04T20:57:22.358Z,99781.91
2023-03-04T21:02:25.649Z,99785.66
2023-03-04T21:07:28.538Z,99785.67
2023-03-04T21:12:31.441Z,99778.20
2023-03-04T21:17:34.175Z,99777.94
2023-03-04T21:22:39.814Z,99780.36
2023-03-04T21:27:44.638Z,99784.14
2023-03-04T21:32:47.751Z,99776.46
2023-03-04T21:37:51.920Z,99777.33
2023-03-04T21:42:55.468Z,99765.37
2023-03-04T21:47:58.332Z,99762.45
2023-03-04T21:53:01.080Z,99765.17
2023-03-04T21:58:04.267Z,99765.23
2023-03-04T22:03:07.184Z,99761.06
2023-03-04T22:08:10.625Z,99760.95
2023-03-04T22:13:15.374Z,99756.70
2023-03-04T22:18:18.111Z,99753.98
2023-03-04T22:23:22.156Z,99753.66
2023-03-04T22:28:28.407Z,99747.26
2023-03-04T22:33:37.211Z,99751.61
2023-03-04T22:38:40.650Z,99750.67
2023-03-04T22:43:44.569Z,99752.27
2023-03-04T22:48:52.352Z,99751.52
2023-03-04T22:53:56.429Z,99741.06
2023-03-04T22:58:59.222Z,99739.80
2023-03-04T23:04:02.031Z,99741.71
2023-03-04T23:09:05.567Z,99742.51
2023-03-04T23:14:09.229Z,99740.04
2023-03-04T23:19:15.348Z,99736.00
2023-03-04T23:24:19.644Z,99737.55
2023-03-04T23:29:22.433Z,99739.88
2023-03-04T23:34:25.193Z,99735.75
2023-03-04T23:39:28.044Z,99732.50
2023-03-04T23:44:30.818Z,99728.89
2023-03-04T23:49:33.794Z,99724.05
2023-03-04T23:54:36.549Z,99712.04
2023-03-04T23:59:39.872Z,99708.02
